sensor_id;sensor_type;location;lat;lon;timestamp;temperature;humidity
74617;DHT22;63123;50.906;4.198;2022-11-09T00:02:17;19.00;61.40
74617;DHT22;63123;50.906;4.198;2022-11-09T00:04:43;19.10;61.40
74617;DHT22;63123;50.906;4.198;2022-11-09T00:07:08;19.00;61.40
74617;DHT22;63123;50.906;4.198;2022-11-09T00:09:34;19.10;61.40
74617;DHT22;63123;50.906;4.198;2022-11-09T00:11:59;19.10;61.30
74617;DHT22;63123;50.906;4.198;2022-11-09T00:14:29;19.00;61.30
74617;DHT22;63123;50.906;4.198;2022-11-09T00:16:54;19.10;61.40
74617;DHT22;63123;50.906;4.198;2022-11-09T00:19:21;19.10;61.40
74617;DHT22;63123;50.906;4.198;2022-11-09T00:21:46;19.10;61.40
74617;DHT22;63123;50.906;4.198;2022-11-09T00:24:12;19.00;61.30
74617;DHT22;63123;50.906;4.198;2022-11-09T00:26:38;19.10;61.40
74617;DHT22;63123;50.906;4.198;2022-11-09T00:29:03;19.10;61.50
74617;DHT22;63123;50.906;4.198;2022-11-09T00:31:29;19.10;61.40
74617;DHT22;63123;50.906;4.198;2022-11-09T00:33:55;19.10;61.40
74617;DHT22;63123;50.906;4.198;2022-11-09T00:36:24;19.10;61.40
74617;DHT22;63123;50.906;4.198;2022-11-09T00:38:51;19.10;61.30
74617;DHT22;63123;50.906;4.198;2022-11-09T00:41:18;19.10;61.30
74617;DHT22;63123;50.906;4.198;2022-11-09T00:43:44;19.00;61.30
74617;DHT22;63123;50.906;4.198;2022-11-09T00:46:09;19.10;61.40
74617;DHT22;63123;50.906;4.198;2022-11-09T00:48:35;19.10;61.40
74617;DHT22;63123;50.906;4.198;2022-11-09T00:51:01;19.10;61.30
74617;DHT22;63123;50.906;4.198;2022-11-09T00:53:27;19.10;61.30
74617;DHT22;63123;50.906;4.198;2022-11-09T00:56:04;19.10;61.30
74617;DHT22;63123;50.906;4.198;2022-11-09T00:58:32;19.10;61.30
74617;DHT22;63123;50.906;4.198;2022-11-09T01:01:01;19.10;61.30
74617;DHT22;63123;50.906;4.198;2022-11-09T01:03:29;19.10;61.30
74617;DHT22;63123;50.906;4.198;2022-11-09T01:05:58;19.00;61.30
74617;DHT22;63123;50.906;4.198;2022-11-09T01:08:24;19.10;61.20
74617;DHT22;63123;50.906;4.198;2022-11-09T01:10:50;19.10;61.30
74617;DHT22;63123;50.906;4.198;2022-11-09T01:13:17;19.10;61.20
74617;DHT22;63123;50.906;4.198;2022-11-09T01:15:45;19.10;61.30
74617;DHT22;63123;50.906;4.198;2022-11-09T01:18:12;19.10;61.20
74617;DHT22;63123;50.906;4.198;2022-11-09T01:20:43;19.10;61.30
74617;DHT22;63123;50.906;4.198;2022-11-09T01:23:10;19.10;61.30
74617;DHT22;63123;50.906;4.198;2022-11-09T01:25:36;19.10;61.90
74617;DHT22;63123;50.906;4.198;2022-11-09T01:28:02;19.10;61.30
74617;DHT22;63123;50.906;4.198;2022-11-09T01:30:28;19.10;61.30
74617;DHT22;63123;50.906;4.198;2022-11-09T01:32:54;19.10;61.20
74617;DHT22;63123;50.906;4.198;2022-11-09T01:35:20;19.10;61.30
74617;DHT22;63123;50.906;4.198;2022-11-09T01:37:45;19.10;61.40
74617;DHT22;63123;50.906;4.198;2022-11-09T01:40:11;19.10;61.30
74617;DHT22;63123;50.906;4.198;2022-11-09T01:42:37;19.10;61.30
74617;DHT22;63123;50.906;4.198;2022-11-09T01:45:32;19.10;61.30
74617;DHT22;63123;50.906;4.198;2022-11-09T01:50:35;19.10;61.30
74617;DHT22;63123;50.906;4.198;2022-11-09T01:53:07;19.10;61.30
74617;DHT22;63123;50.906;4.198;2022-11-09T01:55:34;19.10;61.30
74617;DHT22;63123;50.906;4.198;2022-11-09T01:58:13;19.10;61.90
74617;DHT22;63123;50.906;4.198;2022-11-09T02:00:43;19.10;61.30
74617;DHT22;63123;50.906;4.198;2022-11-09T02:03:14;19.00;61.30
74617;DHT22;63123;50.906;4.198;2022-11-09T02:05:42;19.10;61.40
74617;DHT22;63123;50.906;4.198;2022-11-09T02:08:09;19.10;62.00
74617;DHT22;63123;50.906;4.198;2022-11-09T02:10:42;19.10;61.40
74617;DHT22;63123;50.906;4.198;2022-11-09T02:13:12;19.10;61.40
74617;DHT22;63123;50.906;4.198;2022-11-09T02:15:39;19.10;61.40
74617;DHT22;63123;50.906;4.198;2022-11-09T02:18:05;19.10;61.40
74617;DHT22;63123;50.906;4.198;2022-11-09T02:20:50;19.00;61.30
74617;DHT22;63123;50.906;4.198;2022-11-09T02:23:17;19.10;61.40
74617;DHT22;63123;50.906;4.198;2022-11-09T02:25:44;19.10;61.40
74617;DHT22;63123;50.906;4.198;2022-11-09T02:28:11;19.00;61.40
74617;DHT22;63123;50.906;4.198;2022-11-09T02:30:36;19.00;61.40
74617;DHT22;63123;50.906;4.198;2022-11-09T02:33:03;19.00;61.40
74617;DHT22;63123;50.906;4.198;2022-11-09T02:35:28;19.10;61.40
74617;DHT22;63123;50.906;4.198;2022-11-09T02:37:54;19.10;61.40
74617;DHT22;63123;50.906;4.198;2022-11-09T02:40:25;19.10;61.40
74617;DHT22;63123;50.906;4.198;2022-11-09T02:42:51;19.10;61.40
74617;DHT22;63123;50.906;4.198;2022-11-09T02:45:17;19.10;61.40
74617;DHT22;63123;50.906;4.198;2022-11-09T02:47:43;19.10;61.40
74617;DHT22;63123;50.906;4.198;2022-11-09T02:50:08;19.10;61.40
74617;DHT22;63123;50.906;4.198;2022-11-09T02:52:34;19.10;61.40
74617;DHT22;63123;50.906;4.198;2022-11-09T02:55:00;19.10;61.50
74617;DHT22;63123;50.906;4.198;2022-11-09T02:57:25;19.10;61.40
74617;DHT22;63123;50.906;4.198;2022-11-09T02:59:51;19.10;61.40
74617;DHT22;63123;50.906;4.198;2022-11-09T03:02:16;19.10;61.40
74617;DHT22;63123;50.906;4.198;2022-11-09T03:04:42;19.10;61.40
74617;DHT22;63123;50.906;4.198;2022-11-09T03:07:07;19.10;61.40
74617;DHT22;63123;50.906;4.198;2022-11-09T03:09:33;19.00;61.40
74617;DHT22;63123;50.906;4.198;2022-11-09T03:11:59;19.10;61.40
74617;DHT22;63123;50.906;4.198;2022-11-09T03:14:44;19.10;61.40
74617;DHT22;63123;50.906;4.198;2022-11-09T03:17:10;19.10;61.40
74617;DHT22;63123;50.906;4.198;2022-11-09T03:19:35;19.10;61.40
74617;DHT22;63123;50.906;4.198;2022-11-09T03:22:01;19.10;61.40
74617;DHT22;63123;50.906;4.198;2022-11-09T03:24:26;19.10;61.40
74617;DHT22;63123;50.906;4.198;2022-11-09T03:26:52;19.10;61.40
74617;DHT22;63123;50.906;4.198;2022-11-09T03:29:17;19.10;61.40
74617;DHT22;63123;50.906;4.198;2022-11-09T03:31:43;19.10;61.40
74617;DHT22;63123;50.906;4.198;2022-11-09T03:34:08;19.10;61.40
74617;DHT22;63123;50.906;4.198;2022-11-09T03:36:34;19.00;61.40
74617;DHT22;63123;50.906;4.198;2022-11-09T03:38:59;19.00;61.40
74617;DHT22;63123;50.906;4.198;2022-11-09T03:41:25;19.10;61.50
74617;DHT22;63123;50.906;4.198;2022-11-09T03:43:58;19.10;61.50
74617;DHT22;63123;50.906;4.198;2022-11-09T03:46:24;19.10;62.00
74617;DHT22;63123;50.906;4.198;2022-11-09T03:48:49;19.10;61.40
74617;DHT22;63123;50.906;4.198;2022-11-09T03:51:15;19.10;61.40
74617;DHT22;63123;50.906;4.198;2022-11-09T03:53:40;19.10;61.50
74617;DHT22;63123;50.906;4.198;2022-11-09T03:56:06;19.10;61.50
74617;DHT22;63123;50.906;4.198;2022-11-09T03:58:32;19.10;61.40
74617;DHT22;63123;50.906;4.198;2022-11-09T04:00:57;19.10;61.40
74617;DHT22;63123;50.906;4.198;2022-11-09T04:03:23;19.10;61.40
74617;DHT22;63123;50.906;4.198;2022-11-09T04:05:48;19.10;61.40
74617;DHT22;63123;50.906;4.198;2022-11-09T04:08:14;19.10;61.50
74617;DHT22;63123;50.906;4.198;2022-11-09T04:10:39;19.10;61.40
74617;DHT22;63123;50.906;4.198;2022-11-09T04:13:05;19.10;61.40
74617;DHT22;63123;50.906;4.198;2022-11-09T04:15:30;19.10;61.50
74617;DHT22;63123;50.906;4.198;2022-11-09T04:17:58;19.10;61.40
74617;DHT22;63123;50.906;4.198;2022-11-09T04:20:25;19.00;61.40
74617;DHT22;63123;50.906;4.198;2022-11-09T04:22:55;19.10;61.50
74617;DHT22;63123;50.906;4.198;2022-11-09T04:25:21;19.10;61.50
74617;DHT22;63123;50.906;4.198;2022-11-09T04:27:47;19.10;61.40
74617;DHT22;63123;50.906;4.198;2022-11-09T04:30:13;19.10;61.40
74617;DHT22;63123;50.906;4.198;2022-11-09T04:32:38;19.10;61.40
74617;DHT22;63123;50.906;4.198;2022-11-09T04:35:04;19.10;61.50
74617;DHT22;63123;50.906;4.198;2022-11-09T04:37:30;19.00;61.40
74617;DHT22;63123;50.906;4.198;2022-11-09T04:39:55;19.10;61.40
74617;DHT22;63123;50.906;4.198;2022-11-09T04:42:21;19.00;61.40
74617;DHT22;63123;50.906;4.198;2022-11-09T04:44:46;19.00;61.40
74617;DHT22;63123;50.906;4.198;2022-11-09T04:47:12;19.10;61.40
74617;DHT22;63123;50.906;4.198;2022-11-09T04:49:37;19.10;61.50
74617;DHT22;63123;50.906;4.198;2022-11-09T04:52:03;19.10;61.40
74617;DHT22;63123;50.906;4.198;2022-11-09T04:54:28;19.00;61.50
74617;DHT22;63123;50.906;4.198;2022-11-09T04:56:54;19.10;61.50
74617;DHT22;63123;50.906;4.198;2022-11-09T04:59:20;19.00;61.40
74617;DHT22;63123;50.906;4.198;2022-11-09T05:01:45;19.10;61.50
74617;DHT22;63123;50.906;4.198;2022-11-09T05:04:11;19.10;61.40
74617;DHT22;63123;50.906;4.198;2022-11-09T05:06:36;19.00;61.40
74617;DHT22;63123;50.906;4.198;2022-11-09T05:09:06;19.10;61.50
74617;DHT22;63123;50.906;4.198;2022-11-09T05:11:33;19.10;61.40
74617;DHT22;63123;50.906;4.198;2022-11-09T05:13:59;19.10;61.50
74617;DHT22;63123;50.906;4.198;2022-11-09T05:16:26;19.00;61.40
74617;DHT22;63123;50.906;4.198;2022-11-09T05:18:52;19.00;61.40
74617;DHT22;63123;50.906;4.198;2022-11-09T05:21:18;19.10;61.50
74617;DHT22;63123;50.906;4.198;2022-11-09T05:23:43;19.10;61.50
74617;DHT22;63123;50.906;4.198;2022-11-09T05:26:35;19.00;61.40
74617;DHT22;63123;50.906;4.198;2022-11-09T05:29:03;19.10;61.50
74617;DHT22;63123;50.906;4.198;2022-11-09T05:31:29;19.00;61.40
74617;DHT22;63123;50.906;4.198;2022-11-09T05:33:55;19.00;61.50
74617;DHT22;63123;50.906;4.198;2022-11-09T05:36:21;19.10;61.50
74617;DHT22;63123;50.906;4.198;2022-11-09T05:38:47;19.10;61.50
74617;DHT22;63123;50.906;4.198;2022-11-09T05:41:14;19.00;61.50
74617;DHT22;63123;50.906;4.198;2022-11-09T05:43:39;19.10;61.50
74617;DHT22;63123;50.906;4.198;2022-11-09T05:46:06;19.10;61.50
74617;DHT22;63123;50.906;4.198;2022-11-09T05:48:31;19.10;61.50
74617;DHT22;63123;50.906;4.198;2022-11-09T05:51:02;19.00;61.40
74617;DHT22;63123;50.906;4.198;2022-11-09T05:53:27;19.10;61.50
74617;DHT22;63123;50.906;4.198;2022-11-09T05:55:53;19.10;61.50
74617;DHT22;63123;50.906;4.198;2022-11-09T05:58:19;19.10;61.50
74617;DHT22;63123;50.906;4.198;2022-11-09T06:00:44;19.00;61.40
74617;DHT22;63123;50.906;4.198;2022-11-09T06:03:10;19.00;61.40
74617;DHT22;63123;50.906;4.198;2022-11-09T06:05:37;19.10;61.50
74617;DHT22;63123;50.906;4.198;2022-11-09T06:08:06;19.00;61.40
74617;DHT22;63123;50.906;4.198;2022-11-09T06:10:32;19.10;61.50
74617;DHT22;63123;50.906;4.198;2022-11-09T06:12:58;19.10;61.50
74617;DHT22;63123;50.906;4.198;2022-11-09T06:15:24;19.10;61.50
74617;DHT22;63123;50.906;4.198;2022-11-09T06:17:53;19.10;61.40
74617;DHT22;63123;50.906;4.198;2022-11-09T06:20:20;19.10;61.40
74617;DHT22;63123;50.906;4.198;2022-11-09T06:22:58;19.10;61.40
74617;DHT22;63123;50.906;4.198;2022-11-09T06:25:25;19.00;61.40
74617;DHT22;63123;50.906;4.198;2022-11-09T06:27:53;19.10;61.40
74617;DHT22;63123;50.906;4.198;2022-11-09T06:30:19;19.00;61.40
74617;DHT22;63123;50.906;4.198;2022-11-09T06:32:44;19.10;61.40
74617;DHT22;63123;50.906;4.198;2022-11-09T06:35:10;19.00;61.40
74617;DHT22;63123;50.906;4.198;2022-11-09T06:37:35;19.10;61.40
74617;DHT22;63123;50.906;4.198;2022-11-09T06:40:01;19.00;61.30
74617;DHT22;63123;50.906;4.198;2022-11-09T06:42:26;19.10;61.40
74617;DHT22;63123;50.906;4.198;2022-11-09T06:44:52;19.00;61.30
74617;DHT22;63123;50.906;4.198;2022-11-09T06:47:17;19.10;61.40
74617;DHT22;63123;50.906;4.198;2022-11-09T06:49:43;19.10;61.40
74617;DHT22;63123;50.906;4.198;2022-11-09T06:52:08;19.10;61.40
74617;DHT22;63123;50.906;4.198;2022-11-09T06:54:34;19.10;61.40
74617;DHT22;63123;50.906;4.198;2022-11-09T06:57:00;19.10;61.40
74617;DHT22;63123;50.906;4.198;2022-11-09T06:59:26;19.10;61.40
74617;DHT22;63123;50.906;4.198;2022-11-09T07:01:52;19.10;61.40
74617;DHT22;63123;50.906;4.198;2022-11-09T07:04:17;19.10;61.30
74617;DHT22;63123;50.906;4.198;2022-11-09T07:06:43;19.10;61.40
74617;DHT22;63123;50.906;4.198;2022-11-09T07:09:09;19.10;61.40
74617;DHT22;63123;50.906;4.198;2022-11-09T07:11:35;19.10;61.40
74617;DHT22;63123;50.906;4.198;2022-11-09T07:14:01;19.10;61.30
74617;DHT22;63123;50.906;4.198;2022-11-09T07:16:28;19.10;61.30
74617;DHT22;63123;50.906;4.198;2022-11-09T07:18:54;19.10;61.30
74617;DHT22;63123;50.906;4.198;2022-11-09T07:21:19;19.10;61.30
74617;DHT22;63123;50.906;4.198;2022-11-09T07:23:46;19.00;61.30
74617;DHT22;63123;50.906;4.198;2022-11-09T07:26:12;19.00;61.20
74617;DHT22;63123;50.906;4.198;2022-11-09T07:28:38;19.00;61.30
74617;DHT22;63123;50.906;4.198;2022-11-09T07:31:04;19.00;61.30
74617;DHT22;63123;50.906;4.198;2022-11-09T07:33:30;19.00;61.30
74617;DHT22;63123;50.906;4.198;2022-11-09T07:35:58;19.10;61.30
74617;DHT22;63123;50.906;4.198;2022-11-09T07:38:25;19.10;61.30
74617;DHT22;63123;50.906;4.198;2022-11-09T07:40:50;19.00;61.30
74617;DHT22;63123;50.906;4.198;2022-11-09T07:43:16;19.10;61.30
74617;DHT22;63123;50.906;4.198;2022-11-09T07:45:42;19.00;61.30
74617;DHT22;63123;50.906;4.198;2022-11-09T07:48:09;19.00;61.30
74617;DHT22;63123;50.906;4.198;2022-11-09T07:50:36;19.10;61.30
74617;DHT22;63123;50.906;4.198;2022-11-09T07:53:03;19.10;61.30
74617;DHT22;63123;50.906;4.198;2022-11-09T07:55:30;19.10;61.30
74617;DHT22;63123;50.906;4.198;2022-11-09T07:58:02;19.10;61.30
74617;DHT22;63123;50.906;4.198;2022-11-09T08:00:30;19.10;61.30
74617;DHT22;63123;50.906;4.198;2022-11-09T08:02:57;19.00;61.20
74617;DHT22;63123;50.906;4.198;2022-11-09T08:05:23;19.10;61.20
74617;DHT22;63123;50.906;4.198;2022-11-09T08:07:53;19.00;61.20
74617;DHT22;63123;50.906;4.198;2022-11-09T08:10:19;19.00;61.20
74617;DHT22;63123;50.906;4.198;2022-11-09T08:12:52;19.10;61.20
74617;DHT22;63123;50.906;4.198;2022-11-09T08:15:17;19.00;61.20
74617;DHT22;63123;50.906;4.198;2022-11-09T08:17:43;19.00;61.20
74617;DHT22;63123;50.906;4.198;2022-11-09T08:20:09;19.10;61.20
74617;DHT22;63123;50.906;4.198;2022-11-09T08:22:40;19.10;61.20
74617;DHT22;63123;50.906;4.198;2022-11-09T08:25:07;19.10;61.20
74617;DHT22;63123;50.906;4.198;2022-11-09T08:27:32;19.00;61.10
74617;DHT22;63123;50.906;4.198;2022-11-09T08:30:05;19.10;60.90
74617;DHT22;63123;50.906;4.198;2022-11-09T08:32:31;19.10;60.60
74617;DHT22;63123;50.906;4.198;2022-11-09T08:34:56;19.10;60.40
74617;DHT22;63123;50.906;4.198;2022-11-09T08:37:22;19.10;60.60
74617;DHT22;63123;50.906;4.198;2022-11-09T08:39:47;19.10;60.50
74617;DHT22;63123;50.906;4.198;2022-11-09T08:42:13;19.10;60.40
74617;DHT22;63123;50.906;4.198;2022-11-09T08:44:38;19.10;60.30
74617;DHT22;63123;50.906;4.198;2022-11-09T08:47:04;19.10;60.30
74617;DHT22;63123;50.906;4.198;2022-11-09T08:49:29;19.10;60.30
74617;DHT22;63123;50.906;4.198;2022-11-09T08:51:56;19.10;60.30
74617;DHT22;63123;50.906;4.198;2022-11-09T08:54:22;19.10;60.20
74617;DHT22;63123;50.906;4.198;2022-11-09T08:56:48;19.10;60.30
74617;DHT22;63123;50.906;4.198;2022-11-09T08:59:14;19.10;60.30
74617;DHT22;63123;50.906;4.198;2022-11-09T09:01:39;19.20;60.30
74617;DHT22;63123;50.906;4.198;2022-11-09T09:04:05;19.10;60.10
74617;DHT22;63123;50.906;4.198;2022-11-09T09:06:30;19.10;60.20
74617;DHT22;63123;50.906;4.198;2022-11-09T09:08:56;19.20;60.20
74617;DHT22;63123;50.906;4.198;2022-11-09T09:11:22;19.20;60.70
74617;DHT22;63123;50.906;4.198;2022-11-09T09:13:47;19.20;60.00
74617;DHT22;63123;50.906;4.198;2022-11-09T09:16:14;19.20;60.10
74617;DHT22;63123;50.906;4.198;2022-11-09T09:18:40;19.20;60.10
74617;DHT22;63123;50.906;4.198;2022-11-09T09:21:09;19.20;60.00
74617;DHT22;63123;50.906;4.198;2022-11-09T09:23:35;19.20;59.90
74617;DHT22;63123;50.906;4.198;2022-11-09T09:26:01;19.10;59.90
74617;DHT22;63123;50.906;4.198;2022-11-09T09:28:26;19.20;60.00
74617;DHT22;63123;50.906;4.198;2022-11-09T09:30:52;19.20;60.00
74617;DHT22;63123;50.906;4.198;2022-11-09T09:33:18;19.20;60.00
74617;DHT22;63123;50.906;4.198;2022-11-09T09:35:44;19.20;59.90
74617;DHT22;63123;50.906;4.198;2022-11-09T09:38:09;19.10;59.80
74617;DHT22;63123;50.906;4.198;2022-11-09T09:40:45;19.20;60.00
74617;DHT22;63123;50.906;4.198;2022-11-09T09:43:23;19.20;59.80
74617;DHT22;63123;50.906;4.198;2022-11-09T09:45:51;19.20;60.00
74617;DHT22;63123;50.906;4.198;2022-11-09T09:48:37;19.20;59.70
74617;DHT22;63123;50.906;4.198;2022-11-09T09:51:31;19.20;59.90
74617;DHT22;63123;50.906;4.198;2022-11-09T09:54:05;19.20;60.10
74617;DHT22;63123;50.906;4.198;2022-11-09T09:56:39;19.20;59.90
74617;DHT22;63123;50.906;4.198;2022-11-09T09:59:33;19.20;59.90
74617;DHT22;63123;50.906;4.198;2022-11-09T10:02:01;19.20;59.80
74617;DHT22;63123;50.906;4.198;2022-11-09T10:04:39;19.20;59.90
74617;DHT22;63123;50.906;4.198;2022-11-09T10:15:05;19.20;59.90
74617;DHT22;63123;50.906;4.198;2022-11-09T10:20:37;19.20;59.90
74617;DHT22;63123;50.906;4.198;2022-11-09T10:25:45;19.20;59.80
74617;DHT22;63123;50.906;4.198;2022-11-09T10:28:14;19.20;59.70
74617;DHT22;63123;50.906;4.198;2022-11-09T10:30:40;19.20;59.70
74617;DHT22;63123;50.906;4.198;2022-11-09T10:38:16;19.20;59.60
74617;DHT22;63123;50.906;4.198;2022-11-09T10:40:53;19.20;59.60
74617;DHT22;63123;50.906;4.198;2022-11-09T10:43:19;19.20;59.60
74617;DHT22;63123;50.906;4.198;2022-11-09T10:45:45;19.20;59.60
74617;DHT22;63123;50.906;4.198;2022-11-09T10:48:34;19.20;59.50
74617;DHT22;63123;50.906;4.198;2022-11-09T10:51:00;19.20;59.60
74617;DHT22;63123;50.906;4.198;2022-11-09T10:53:31;19.20;59.60
74617;DHT22;63123;50.906;4.198;2022-11-09T10:55:58;19.20;59.50
74617;DHT22;63123;50.906;4.198;2022-11-09T10:58:50;19.20;59.60
74617;DHT22;63123;50.906;4.198;2022-11-09T11:01:22;19.20;59.40
74617;DHT22;63123;50.906;4.198;2022-11-09T11:03:50;19.20;59.60
74617;DHT22;63123;50.906;4.198;2022-11-09T11:08:52;19.20;59.50
74617;DHT22;63123;50.906;4.198;2022-11-09T11:11:28;19.20;59.70
74617;DHT22;63123;50.906;4.198;2022-11-09T11:14:27;19.20;59.60
74617;DHT22;63123;50.906;4.198;2022-11-09T11:16:53;19.20;59.60
74617;DHT22;63123;50.906;4.198;2022-11-09T11:24:46;19.20;59.80
74617;DHT22;63123;50.906;4.198;2022-11-09T11:27:28;19.20;59.60
74617;DHT22;63123;50.906;4.198;2022-11-09T11:30:14;19.20;59.70
74617;DHT22;63123;50.906;4.198;2022-11-09T11:32:40;19.20;59.70
74617;DHT22;63123;50.906;4.198;2022-11-09T11:35:17;19.20;59.60
74617;DHT22;63123;50.906;4.198;2022-11-09T11:40:33;19.20;59.70
74617;DHT22;63123;50.906;4.198;2022-11-09T11:43:10;19.20;59.60
74617;DHT22;63123;50.906;4.198;2022-11-09T11:45:41;19.20;59.60
74617;DHT22;63123;50.906;4.198;2022-11-09T11:50:57;19.30;59.50
74617;DHT22;63123;50.906;4.198;2022-11-09T12:01:35;19.20;59.70
74617;DHT22;63123;50.906;4.198;2022-11-09T12:07:25;19.20;59.80
74617;DHT22;63123;50.906;4.198;2022-11-09T12:09:58;19.20;59.80
74617;DHT22;63123;50.906;4.198;2022-11-09T12:26:07;19.30;59.90
74617;DHT22;63123;50.906;4.198;2022-11-09T12:29:04;19.20;59.80
74617;DHT22;63123;50.906;4.198;2022-11-09T12:34:24;19.30;60.00
74617;DHT22;63123;50.906;4.198;2022-11-09T12:37:12;19.30;59.90
74617;DHT22;63123;50.906;4.198;2022-11-09T12:39:46;19.30;60.00
74617;DHT22;63123;50.906;4.198;2022-11-09T12:42:42;19.30;60.00
74617;DHT22;63123;50.906;4.198;2022-11-09T12:47:50;19.30;60.00
74617;DHT22;63123;50.906;4.198;2022-11-09T12:50:20;19.30;60.00
74617;DHT22;63123;50.906;4.198;2022-11-09T12:52:49;19.30;60.00
74617;DHT22;63123;50.906;4.198;2022-11-09T12:55:22;19.30;59.90
74617;DHT22;63123;50.906;4.198;2022-11-09T12:57:49;19.30;59.90
74617;DHT22;63123;50.906;4.198;2022-11-09T13:03:03;19.30;60.10
74617;DHT22;63123;50.906;4.198;2022-11-09T13:05:32;19.30;60.10
74617;DHT22;63123;50.906;4.198;2022-11-09T13:08:04;19.30;60.10
74617;DHT22;63123;50.906;4.198;2022-11-09T13:10:33;19.30;60.00
74617;DHT22;63123;50.906;4.198;2022-11-09T13:16:08;19.30;60.00
74617;DHT22;63123;50.906;4.198;2022-11-09T13:18:47;19.30;60.00
74617;DHT22;63123;50.906;4.198;2022-11-09T13:23:48;19.30;60.00
74617;DHT22;63123;50.906;4.198;2022-11-09T13:37:37;19.30;60.00
74617;DHT22;63123;50.906;4.198;2022-11-09T13:50:53;19.30;60.00
74617;DHT22;63123;50.906;4.198;2022-11-09T13:56:37;19.30;59.90
74617;DHT22;63123;50.906;4.198;2022-11-09T13:59:24;19.30;59.90
74617;DHT22;63123;50.906;4.198;2022-11-09T14:01:54;19.30;60.00
74617;DHT22;63123;50.906;4.198;2022-11-09T14:07:23;19.20;59.80
74617;DHT22;63123;50.906;4.198;2022-11-09T14:13:00;19.20;59.90
74617;DHT22;63123;50.906;4.198;2022-11-09T14:21:14;19.30;59.70
74617;DHT22;63123;50.906;4.198;2022-11-09T14:23:42;19.30;59.70
74617;DHT22;63123;50.906;4.198;2022-11-09T14:26:16;19.30;59.70
74617;DHT22;63123;50.906;4.198;2022-11-09T14:28:42;19.20;59.70
74617;DHT22;63123;50.906;4.198;2022-11-09T14:31:28;19.20;59.50
74617;DHT22;63123;50.906;4.198;2022-11-09T14:34:00;19.30;59.70
74617;DHT22;63123;50.906;4.198;2022-11-09T14:36:27;19.20;59.60
74617;DHT22;63123;50.906;4.198;2022-11-09T14:38:54;19.30;59.60
74617;DHT22;63123;50.906;4.198;2022-11-09T14:41:24;19.30;59.60
74617;DHT22;63123;50.906;4.198;2022-11-09T14:43:51;19.30;59.50
74617;DHT22;63123;50.906;4.198;2022-11-09T14:46:28;19.20;59.60
74617;DHT22;63123;50.906;4.198;2022-11-09T14:49:00;19.30;59.60
74617;DHT22;63123;50.906;4.198;2022-11-09T14:51:38;19.20;59.70
74617;DHT22;63123;50.906;4.198;2022-11-09T14:54:10;19.30;59.50
74617;DHT22;63123;50.906;4.198;2022-11-09T14:56:37;19.20;59.30
74617;DHT22;63123;50.906;4.198;2022-11-09T14:59:05;19.20;59.40
74617;DHT22;63123;50.906;4.198;2022-11-09T15:01:31;19.20;59.40
74617;DHT22;63123;50.906;4.198;2022-11-09T15:04:14;19.30;59.40
74617;DHT22;63123;50.906;4.198;2022-11-09T15:06:52;19.30;59.40
74617;DHT22;63123;50.906;4.198;2022-11-09T15:09:21;19.20;59.40
74617;DHT22;63123;50.906;4.198;2022-11-09T15:11:48;19.20;59.20
74617;DHT22;63123;50.906;4.198;2022-11-09T15:14:29;19.20;59.40
74617;DHT22;63123;50.906;4.198;2022-11-09T15:17:21;19.20;59.10
74617;DHT22;63123;50.906;4.198;2022-11-09T15:19:56;19.20;59.20
74617;DHT22;63123;50.906;4.198;2022-11-09T15:38:43;19.20;59.30
74617;DHT22;63123;50.906;4.198;2022-11-09T15:41:18;19.20;59.20
74617;DHT22;63123;50.906;4.198;2022-11-09T15:43:45;19.20;59.30
74617;DHT22;63123;50.906;4.198;2022-11-09T15:46:13;19.20;59.30
74617;DHT22;63123;50.906;4.198;2022-11-09T15:48:39;19.20;59.10
74617;DHT22;63123;50.906;4.198;2022-11-09T15:51:05;19.20;59.10
74617;DHT22;63123;50.906;4.198;2022-11-09T15:53:30;19.20;59.10
74617;DHT22;63123;50.906;4.198;2022-11-09T15:55:57;19.20;59.20
74617;DHT22;63123;50.906;4.198;2022-11-09T15:58:23;19.20;59.20
74617;DHT22;63123;50.906;4.198;2022-11-09T16:00:48;19.20;59.20
74617;DHT22;63123;50.906;4.198;2022-11-09T16:03:14;19.20;59.20
74617;DHT22;63123;50.906;4.198;2022-11-09T16:05:45;19.20;59.30
74617;DHT22;63123;50.906;4.198;2022-11-09T16:08:11;19.20;59.10
74617;DHT22;63123;50.906;4.198;2022-11-09T16:10:37;19.20;59.30
74617;DHT22;63123;50.906;4.198;2022-11-09T16:13:08;19.20;59.20
74617;DHT22;63123;50.906;4.198;2022-11-09T16:15:35;19.20;59.20
74617;DHT22;63123;50.906;4.198;2022-11-09T16:18:01;19.20;59.20
74617;DHT22;63123;50.906;4.198;2022-11-09T16:20:28;19.20;59.30
74617;DHT22;63123;50.906;4.198;2022-11-09T16:22:53;19.20;59.40
74617;DHT22;63123;50.906;4.198;2022-11-09T16:25:19;19.20;59.30
74617;DHT22;63123;50.906;4.198;2022-11-09T16:27:45;19.20;59.40
74617;DHT22;63123;50.906;4.198;2022-11-09T16:30:11;19.20;59.40
74617;DHT22;63123;50.906;4.198;2022-11-09T16:32:37;19.20;59.40
74617;DHT22;63123;50.906;4.198;2022-11-09T16:35:04;19.20;59.30
74617;DHT22;63123;50.906;4.198;2022-11-09T16:37:33;19.20;59.40
74617;DHT22;63123;50.906;4.198;2022-11-09T16:40:02;19.20;59.30
74617;DHT22;63123;50.906;4.198;2022-11-09T16:42:31;19.20;59.20
74617;DHT22;63123;50.906;4.198;2022-11-09T16:45:03;19.20;59.30
74617;DHT22;63123;50.906;4.198;2022-11-09T16:47:29;19.20;59.10
74617;DHT22;63123;50.906;4.198;2022-11-09T16:49:55;19.20;59.70
74617;DHT22;63123;50.906;4.198;2022-11-09T16:52:20;19.20;59.10
74617;DHT22;63123;50.906;4.198;2022-11-09T16:54:46;19.20;59.10
74617;DHT22;63123;50.906;4.198;2022-11-09T16:57:11;19.20;59.10
74617;DHT22;63123;50.906;4.198;2022-11-09T16:59:37;19.20;59.00
74617;DHT22;63123;50.906;4.198;2022-11-09T17:02:04;19.20;59.10
74617;DHT22;63123;50.906;4.198;2022-11-09T17:04:29;19.20;59.20
74617;DHT22;63123;50.906;4.198;2022-11-09T17:06:55;19.20;59.00
74617;DHT22;63123;50.906;4.198;2022-11-09T17:09:20;19.20;59.10
74617;DHT22;63123;50.906;4.198;2022-11-09T17:11:47;19.20;58.90
74617;DHT22;63123;50.906;4.198;2022-11-09T17:14:13;19.20;59.00
74617;DHT22;63123;50.906;4.198;2022-11-09T17:16:38;19.20;58.90
74617;DHT22;63123;50.906;4.198;2022-11-09T17:19:06;19.10;58.90
74617;DHT22;63123;50.906;4.198;2022-11-09T17:21:32;19.20;59.00
74617;DHT22;63123;50.906;4.198;2022-11-09T17:23:58;19.20;59.10
74617;DHT22;63123;50.906;4.198;2022-11-09T17:26:24;19.20;59.00
74617;DHT22;63123;50.906;4.198;2022-11-09T17:28:50;19.20;59.10
74617;DHT22;63123;50.906;4.198;2022-11-09T17:31:18;19.20;59.20
74617;DHT22;63123;50.906;4.198;2022-11-09T17:33:45;19.20;59.10
74617;DHT22;63123;50.906;4.198;2022-11-09T17:36:12;19.20;59.20
74617;DHT22;63123;50.906;4.198;2022-11-09T17:38:38;19.20;59.10
74617;DHT22;63123;50.906;4.198;2022-11-09T17:41:10;19.20;58.90
74617;DHT22;63123;50.906;4.198;2022-11-09T17:43:37;19.20;59.00
74617;DHT22;63123;50.906;4.198;2022-11-09T17:46:04;19.20;59.20